sensor_id;sensor_type;location;lat;lon;timestamp;P1;durP1;ratioP1;P2;durP2;ratioP2
21492;SDS011;10908;50.690;4.400;2023-10-19T00:02:05;3.92;;;0.60;;
21492;SDS011;10908;50.690;4.400;2023-10-19T00:04:32;3.53;;;0.57;;
21492;SDS011;10908;50.690;4.400;2023-10-19T00:07:00;1.98;;;0.40;;
21492;SDS011;10908;50.690;4.400;2023-10-19T00:09:26;5.72;;;0.52;;
21492;SDS011;10908;50.690;4.400;2023-10-19T00:12:00;5.20;;;0.60;;
21492;SDS011;10908;50.690;4.400;2023-10-19T00:14:27;2.97;;;0.50;;
21492;SDS011;10908;50.690;4.400;2023-10-19T00:16:53;3.42;;;0.38;;
21492;SDS011;10908;50.690;4.400;2023-10-19T00:19:21;5.20;;;0.57;;
21492;SDS011;10908;50.690;4.400;2023-10-19T00:21:47;2.60;;;0.43;;
21492;SDS011;10908;50.690;4.400;2023-10-19T00:24:19;4.10;;;0.52;;
21492;SDS011;10908;50.690;4.400;2023-10-19T00:26:47;5.45;;;0.52;;
21492;SDS011;10908;50.690;4.400;2023-10-19T00:29:13;4.10;;;0.50;;
21492;SDS011;10908;50.690;4.400;2023-10-19T00:31:58;4.15;;;0.57;;
21492;SDS011;10908;50.690;4.400;2023-10-19T00:34:25;4.05;;;0.50;;
21492;SDS011;10908;50.690;4.400;2023-10-19T00:36:53;2.20;;;0.40;;
21492;SDS011;10908;50.690;4.400;2023-10-19T00:39:26;3.35;;;0.40;;
21492;SDS011;10908;50.690;4.400;2023-10-19T00:41:52;4.97;;;0.70;;
21492;SDS011;10908;50.690;4.400;2023-10-19T00:44:23;2.83;;;0.60;;
21492;SDS011;10908;50.690;4.400;2023-10-19T00:47:09;3.35;;;0.40;;
21492;SDS011;10908;50.690;4.400;2023-10-19T00:49:38;5.30;;;0.80;;
21492;SDS011;10908;50.690;4.400;2023-10-19T00:52:04;4.75;;;0.60;;
21492;SDS011;10908;50.690;4.400;2023-10-19T00:54:44;6.30;;;0.60;;
21492;SDS011;10908;50.690;4.400;2023-10-19T00:57:19;4.22;;;0.70;;
21492;SDS011;10908;50.690;4.400;2023-10-19T00:59:46;3.50;;;0.43;;
21492;SDS011;10908;50.690;4.400;2023-10-19T01:02:18;2.90;;;0.50;;
21492;SDS011;10908;50.690;4.400;2023-10-19T01:04:51;4.28;;;0.50;;
21492;SDS011;10908;50.690;4.400;2023-10-19T01:07:21;6.97;;;0.60;;
21492;SDS011;10908;50.690;4.400;2023-10-19T01:09:53;3.42;;;0.45;;
21492;SDS011;10908;50.690;4.400;2023-10-19T01:12:22;4.90;;;0.82;;
21492;SDS011;10908;50.690;4.400;2023-10-19T01:15:02;4.70;;;1.15;;
21492;SDS011;10908;50.690;4.400;2023-10-19T01:17:39;6.15;;;0.60;;
21492;SDS011;10908;50.690;4.400;2023-10-19T01:20:07;4.63;;;0.70;;
21492;SDS011;10908;50.690;4.400;2023-10-19T01:25:14;5.20;;;0.80;;
21492;SDS011;10908;50.690;4.400;2023-10-19T01:27:45;4.47;;;0.50;;
21492;SDS011;10908;50.690;4.400;2023-10-19T01:30:12;4.55;;;0.60;;
21492;SDS011;10908;50.690;4.400;2023-10-19T01:32:40;7.40;;;0.70;;
21492;SDS011;10908;50.690;4.400;2023-10-19T01:35:07;6.85;;;0.85;;
21492;SDS011;10908;50.690;4.400;2023-10-19T01:37:33;4.80;;;0.80;;
21492;SDS011;10908;50.690;4.400;2023-10-19T01:40:03;4.40;;;0.57;;
21492;SDS011;10908;50.690;4.400;2023-10-19T01:42:29;5.65;;;0.60;;
21492;SDS011;10908;50.690;4.400;2023-10-19T01:44:56;4.95;;;0.60;;
21492;SDS011;10908;50.690;4.400;2023-10-19T01:47:21;6.35;;;0.88;;
21492;SDS011;10908;50.690;4.400;2023-10-19T01:49:47;6.00;;;0.70;;
21492;SDS011;10908;50.690;4.400;2023-10-19T01:52:17;5.50;;;0.82;;
21492;SDS011;10908;50.690;4.400;2023-10-19T01:54:43;6.32;;;0.88;;
21492;SDS011;10908;50.690;4.400;2023-10-19T01:57:08;4.38;;;0.65;;
21492;SDS011;10908;50.690;4.400;2023-10-19T01:59:34;5.88;;;0.90;;
21492;SDS011;10908;50.690;4.400;2023-10-19T02:02:00;6.63;;;0.90;;
21492;SDS011;10908;50.690;4.400;2023-10-19T02:04:27;7.82;;;0.88;;
21492;SDS011;10908;50.690;4.400;2023-10-19T02:06:53;5.47;;;1.00;;
21492;SDS011;10908;50.690;4.400;2023-10-19T02:09:19;4.22;;;0.70;;
21492;SDS011;10908;50.690;4.400;2023-10-19T02:12:13;6.13;;;1.05;;
21492;SDS011;10908;50.690;4.400;2023-10-19T02:14:39;6.53;;;1.10;;
21492;SDS011;10908;50.690;4.400;2023-10-19T02:17:04;9.52;;;0.93;;
21492;SDS011;10908;50.690;4.400;2023-10-19T02:19:30;7.80;;;1.00;;
21492;SDS011;10908;50.690;4.400;2023-10-19T02:21:58;6.78;;;0.73;;
21492;SDS011;10908;50.690;4.400;2023-10-19T02:24:28;9.43;;;1.67;;
21492;SDS011;10908;50.690;4.400;2023-10-19T02:26:55;7.80;;;1.00;;
21492;SDS011;10908;50.690;4.400;2023-10-19T02:29:22;12.23;;;1.10;;
21492;SDS011;10908;50.690;4.400;2023-10-19T02:31:48;8.00;;;1.17;;
21492;SDS011;10908;50.690;4.400;2023-10-19T02:34:18;7.93;;;1.08;;
21492;SDS011;10908;50.690;4.400;2023-10-19T02:36:44;10.10;;;1.20;;
21492;SDS011;10908;50.690;4.400;2023-10-19T02:39:13;5.60;;;0.98;;
21492;SDS011;10908;50.690;4.400;2023-10-19T02:41:40;6.30;;;1.02;;
21492;SDS011;10908;50.690;4.400;2023-10-19T02:44:11;6.53;;;1.17;;
21492;SDS011;10908;50.690;4.400;2023-10-19T02:46:41;7.53;;;1.17;;
21492;SDS011;10908;50.690;4.400;2023-10-19T02:49:07;9.68;;;1.10;;
21492;SDS011;10908;50.690;4.400;2023-10-19T02:51:38;9.82;;;1.38;;
21492;SDS011;10908;50.690;4.400;2023-10-19T02:54:05;8.80;;;1.40;;
21492;SDS011;10908;50.690;4.400;2023-10-19T02:56:32;8.52;;;1.23;;
21492;SDS011;10908;50.690;4.400;2023-10-19T02:59:00;8.70;;;1.30;;
21492;SDS011;10908;50.690;4.400;2023-10-19T03:01:30;5.72;;;1.00;;
21492;SDS011;10908;50.690;4.400;2023-10-19T03:03:58;10.25;;;1.45;;
21492;SDS011;10908;50.690;4.400;2023-10-19T03:06:27;13.88;;;1.35;;
21492;SDS011;10908;50.690;4.400;2023-10-19T03:09:03;8.00;;;1.27;;
21492;SDS011;10908;50.690;4.400;2023-10-19T03:11:38;10.35;;;1.25;;
21492;SDS011;10908;50.690;4.400;2023-10-19T03:14:07;8.38;;;1.25;;
21492;SDS011;10908;50.690;4.400;2023-10-19T03:16:35;7.82;;;1.30;;
21492;SDS011;10908;50.690;4.400;2023-10-19T03:19:01;9.82;;;1.30;;
21492;SDS011;10908;50.690;4.400;2023-10-19T03:21:27;9.05;;;1.25;;
21492;SDS011;10908;50.690;4.400;2023-10-19T03:23:55;10.45;;;1.42;;
21492;SDS011;10908;50.690;4.400;2023-10-19T03:26:27;8.98;;;1.48;;
21492;SDS011;10908;50.690;4.400;2023-10-19T03:28:56;6.97;;;1.15;;
21492;SDS011;10908;50.690;4.400;2023-10-19T03:31:34;7.30;;;1.58;;
21492;SDS011;10908;50.690;4.400;2023-10-19T03:34:09;7.82;;;1.20;;
21492;SDS011;10908;50.690;4.400;2023-10-19T03:36:37;7.97;;;1.17;;
21492;SDS011;10908;50.690;4.400;2023-10-19T03:39:03;11.65;;;1.30;;
21492;SDS011;10908;50.690;4.400;2023-10-19T03:41:36;15.68;;;1.58;;
21492;SDS011;10908;50.690;4.400;2023-10-19T03:44:04;7.90;;;1.25;;
21492;SDS011;10908;50.690;4.400;2023-10-19T03:46:30;11.45;;;1.20;;
21492;SDS011;10908;50.690;4.400;2023-10-19T03:48:57;7.63;;;1.05;;
21492;SDS011;10908;50.690;4.400;2023-10-19T03:51:35;9.50;;;1.13;;
21492;SDS011;10908;50.690;4.400;2023-10-19T03:54:08;11.02;;;1.52;;
21492;SDS011;10908;50.690;4.400;2023-10-19T03:56:50;11.38;;;1.30;;
21492;SDS011;10908;50.690;4.400;2023-10-19T03:59:20;11.27;;;1.58;;
21492;SDS011;10908;50.690;4.400;2023-10-19T04:01:46;8.30;;;1.30;;
21492;SDS011;10908;50.690;4.400;2023-10-19T04:04:13;9.32;;;1.15;;
21492;SDS011;10908;50.690;4.400;2023-10-19T04:06:39;7.63;;;1.38;;
21492;SDS011;10908;50.690;4.400;2023-10-19T04:09:05;12.82;;;1.30;;
21492;SDS011;10908;50.690;4.400;2023-10-19T04:11:34;9.90;;;1.45;;
21492;SDS011;10908;50.690;4.400;2023-10-19T04:14:16;7.68;;;1.38;;
21492;SDS011;10908;50.690;4.400;2023-10-19T04:16:42;10.23;;;1.27;;
21492;SDS011;10908;50.690;4.400;2023-10-19T04:19:11;8.48;;;1.17;;
21492;SDS011;10908;50.690;4.400;2023-10-19T04:21:39;12.60;;;1.70;;
21492;SDS011;10908;50.690;4.400;2023-10-19T04:24:09;7.53;;;1.17;;
21492;SDS011;10908;50.690;4.400;2023-10-19T04:26:35;7.45;;;1.20;;
21492;SDS011;10908;50.690;4.400;2023-10-19T04:29:04;8.52;;;1.20;;
21492;SDS011;10908;50.690;4.400;2023-10-19T04:31:38;8.50;;;1.40;;
21492;SDS011;10908;50.690;4.400;2023-10-19T04:34:15;8.75;;;1.30;;
21492;SDS011;10908;50.690;4.400;2023-10-19T04:36:45;11.05;;;1.35;;
21492;SDS011;10908;50.690;4.400;2023-10-19T04:39:11;10.68;;;1.50;;
21492;SDS011;10908;50.690;4.400;2023-10-19T04:41:41;6.22;;;1.30;;
21492;SDS011;10908;50.690;4.400;2023-10-19T04:44:08;13.48;;;2.13;;
21492;SDS011;10908;50.690;4.400;2023-10-19T04:46:33;9.23;;;1.60;;
21492;SDS011;10908;50.690;4.400;2023-10-19T04:48:59;11.55;;;1.38;;
21492;SDS011;10908;50.690;4.400;2023-10-19T04:51:25;11.82;;;1.60;;
21492;SDS011;10908;50.690;4.400;2023-10-19T04:53:51;9.52;;;1.30;;
21492;SDS011;10908;50.690;4.400;2023-10-19T04:56:17;5.60;;;1.10;;
21492;SDS011;10908;50.690;4.400;2023-10-19T04:58:42;10.07;;;1.55;;
21492;SDS011;10908;50.690;4.400;2023-10-19T05:01:08;9.43;;;1.50;;
21492;SDS011;10908;50.690;4.400;2023-10-19T05:03:37;9.25;;;1.33;;
21492;SDS011;10908;50.690;4.400;2023-10-19T05:06:03;11.13;;;1.40;;
21492;SDS011;10908;50.690;4.400;2023-10-19T05:08:28;7.43;;;1.27;;
21492;SDS011;10908;50.690;4.400;2023-10-19T05:10:55;11.88;;;1.88;;
21492;SDS011;10908;50.690;4.400;2023-10-19T05:13:22;11.25;;;1.23;;
21492;SDS011;10908;50.690;4.400;2023-10-19T05:15:48;7.68;;;1.20;;
21492;SDS011;10908;50.690;4.400;2023-10-19T05:18:14;10.50;;;1.10;;
21492;SDS011;10908;50.690;4.400;2023-10-19T05:20:39;9.57;;;1.60;;
21492;SDS011;10908;50.690;4.400;2023-10-19T05:23:08;7.88;;;1.30;;
21492;SDS011;10908;50.690;4.400;2023-10-19T05:25:35;7.50;;;1.50;;
21492;SDS011;10908;50.690;4.400;2023-10-19T05:28:06;10.07;;;1.30;;
21492;SDS011;10908;50.690;4.400;2023-10-19T05:30:33;11.95;;;1.73;;
21492;SDS011;10908;50.690;4.400;2023-10-19T05:33:00;9.57;;;1.25;;
21492;SDS011;10908;50.690;4.400;2023-10-19T05:35:30;10.25;;;1.95;;
21492;SDS011;10908;50.690;4.400;2023-10-19T05:38:00;12.60;;;1.52;;
21492;SDS011;10908;50.690;4.400;2023-10-19T05:40:26;7.20;;;1.17;;
21492;SDS011;10908;50.690;4.400;2023-10-19T05:42:55;10.70;;;1.20;;
21492;SDS011;10908;50.690;4.400;2023-10-19T05:45:22;8.68;;;1.50;;
21492;SDS011;10908;50.690;4.400;2023-10-19T05:47:47;13.55;;;1.60;;
21492;SDS011;10908;50.690;4.400;2023-10-19T05:50:13;11.98;;;1.63;;
21492;SDS011;10908;50.690;4.400;2023-10-19T05:52:42;15.30;;;1.52;;
21492;SDS011;10908;50.690;4.400;2023-10-19T05:55:11;11.25;;;1.48;;
21492;SDS011;10908;50.690;4.400;2023-10-19T05:57:37;8.82;;;1.65;;
21492;SDS011;10908;50.690;4.400;2023-10-19T06:00:10;10.40;;;1.40;;
21492;SDS011;10908;50.690;4.400;2023-10-19T06:02:46;16.85;;;1.83;;
21492;SDS011;10908;50.690;4.400;2023-10-19T06:05:16;10.07;;;1.48;;
21492;SDS011;10908;50.690;4.400;2023-10-19T06:07:43;11.45;;;1.50;;
21492;SDS011;10908;50.690;4.400;2023-10-19T06:10:11;10.32;;;1.45;;
21492;SDS011;10908;50.690;4.400;2023-10-19T06:12:41;9.85;;;1.40;;
21492;SDS011;10908;50.690;4.400;2023-10-19T06:15:08;8.43;;;1.30;;
21492;SDS011;10908;50.690;4.400;2023-10-19T06:17:36;7.05;;;1.27;;
21492;SDS011;10908;50.690;4.400;2023-10-19T06:20:09;8.98;;;1.52;;
21492;SDS011;10908;50.690;4.400;2023-10-19T06:22:49;11.18;;;1.30;;
21492;SDS011;10908;50.690;4.400;2023-10-19T06:25:19;11.63;;;1.75;;
21492;SDS011;10908;50.690;4.400;2023-10-19T06:27:46;9.63;;;1.48;;
21492;SDS011;10908;50.690;4.400;2023-10-19T06:30:12;9.35;;;1.55;;
21492;SDS011;10908;50.690;4.400;2023-10-19T06:32:43;8.27;;;1.50;;
21492;SDS011;10908;50.690;4.400;2023-10-19T06:35:13;11.32;;;1.48;;
21492;SDS011;10908;50.690;4.400;2023-10-19T06:37:39;9.57;;;1.52;;
21492;SDS011;10908;50.690;4.400;2023-10-19T06:40:05;11.73;;;1.55;;
21492;SDS011;10908;50.690;4.400;2023-10-19T06:42:31;12.13;;;1.60;;
21492;SDS011;10908;50.690;4.400;2023-10-19T06:44:57;11.75;;;2.38;;
21492;SDS011;10908;50.690;4.400;2023-10-19T15:54:11;4.80;;;1.77;;
21492;SDS011;10908;50.690;4.400;2023-10-19T15:56:37;6.97;;;1.65;;
21492;SDS011;10908;50.690;4.400;2023-10-19T15:59:03;6.15;;;1.50;;
21492;SDS011;10908;50.690;4.400;2023-10-19T16:01:30;5.00;;;1.30;;
21492;SDS011;10908;50.690;4.400;2023-10-19T16:03:58;4.38;;;1.10;;
21492;SDS011;10908;50.690;4.400;2023-10-19T16:06:24;4.45;;;1.48;;
21492;SDS011;10908;50.690;4.400;2023-10-19T16:08:49;6.07;;;1.08;;
21492;SDS011;10908;50.690;4.400;2023-10-19T16:11:17;5.30;;;1.23;;
21492;SDS011;10908;50.690;4.400;2023-10-19T16:13:43;4.07;;;1.00;;
21492;SDS011;10908;50.690;4.400;2023-10-19T16:16:09;3.63;;;1.00;;
21492;SDS011;10908;50.690;4.400;2023-10-19T16:18:35;5.63;;;1.15;;
21492;SDS011;10908;50.690;4.400;2023-10-19T16:21:05;4.85;;;1.33;;
21492;SDS011;10908;50.690;4.400;2023-10-19T16:23:31;6.60;;;1.02;;
21492;SDS011;10908;50.690;4.400;2023-10-19T16:25:58;4.00;;;1.00;;
21492;SDS011;10908;50.690;4.400;2023-10-19T16:28:24;3.80;;;1.10;;
21492;SDS011;10908;50.690;4.400;2023-10-19T16:30:50;4.95;;;1.23;;
21492;SDS011;10908;50.690;4.400;2023-10-19T16:33:16;4.70;;;1.10;;
21492;SDS011;10908;50.690;4.400;2023-10-19T16:35:42;4.07;;;1.27;;
21492;SDS011;10908;50.690;4.400;2023-10-19T16:38:08;5.07;;;1.20;;
21492;SDS011;10908;50.690;4.400;2023-10-19T16:40:37;4.28;;;1.40;;
21492;SDS011;10908;50.690;4.400;2023-10-19T16:43:07;4.30;;;1.50;;
21492;SDS011;10908;50.690;4.400;2023-10-19T16:45:34;4.65;;;1.30;;
21492;SDS011;10908;50.690;4.400;2023-10-19T16:48:01;4.60;;;1.20;;
21492;SDS011;10908;50.690;4.400;2023-10-19T16:50:28;4.07;;;1.42;;
21492;SDS011;10908;50.690;4.400;2023-10-19T16:52:54;6.20;;;2.65;;
21492;SDS011;10908;50.690;4.400;2023-10-19T16:55:20;6.03;;;2.67;;
21492;SDS011;10908;50.690;4.400;2023-10-19T16:57:45;4.18;;;1.42;;
21492;SDS011;10908;50.690;4.400;2023-10-19T17:00:11;4.20;;;1.55;;
21492;SDS011;10908;50.690;4.400;2023-10-19T17:02:38;4.38;;;1.83;;
21492;SDS011;10908;50.690;4.400;2023-10-19T17:05:06;4.10;;;1.80;;
21492;SDS011;10908;50.690;4.400;2023-10-19T17:07:31;4.32;;;1.73;;
21492;SDS011;10908;50.690;4.400;2023-10-19T17:09:57;5.97;;;2.03;;
21492;SDS011;10908;50.690;4.400;2023-10-19T17:12:23;3.67;;;1.60;;
21492;SDS011;10908;50.690;4.400;2023-10-19T17:14:50;4.75;;;1.60;;
21492;SDS011;10908;50.690;4.400;2023-10-19T17:17:16;4.20;;;1.30;;
21492;SDS011;10908;50.690;4.400;2023-10-19T17:19:42;3.80;;;1.40;;
21492;SDS011;10908;50.690;4.400;2023-10-19T17:22:10;3.92;;;1.35;;
21492;SDS011;10908;50.690;4.400;2023-10-19T17:24:36;5.95;;;1.50;;
21492;SDS011;10908;50.690;4.400;2023-10-19T17:27:01;5.63;;;2.00;;
21492;SDS011;10908;50.690;4.400;2023-10-19T17:29:30;5.13;;;1.80;;
21492;SDS011;10908;50.690;4.400;2023-10-19T17:31:55;7.22;;;3.25;;
21492;SDS011;10908;50.690;4.400;2023-10-19T17:34:21;4.20;;;2.40;;
21492;SDS011;10908;50.690;4.400;2023-10-19T17:36:47;7.15;;;2.45;;
21492;SDS011;10908;50.690;4.400;2023-10-19T17:39:13;6.03;;;1.80;;
21492;SDS011;10908;50.690;4.400;2023-10-19T17:41:39;5.18;;;2.08;;
21492;SDS011;10908;50.690;4.400;2023-10-19T17:44:07;8.77;;;3.10;;
21492;SDS011;10908;50.690;4.400;2023-10-19T17:46:35;9.30;;;2.90;;
21492;SDS011;10908;50.690;4.400;2023-10-19T17:49:01;5.85;;;2.72;;
21492;SDS011;10908;50.690;4.400;2023-10-19T17:51:26;3.85;;;1.75;;
21492;SDS011;10908;50.690;4.400;2023-10-19T17:53:52;3.90;;;1.85;;
21492;SDS011;10908;50.690;4.400;2023-10-19T17:56:18;6.18;;;1.70;;
21492;SDS011;10908;50.690;4.400;2023-10-19T17:58:44;6.18;;;2.28;;
21492;SDS011;10908;50.690;4.400;2023-10-19T18:01:10;5.95;;;2.00;;
21492;SDS011;10908;50.690;4.400;2023-10-19T18:03:38;5.25;;;2.00;;
21492;SDS011;10908;50.690;4.400;2023-10-19T18:06:05;6.22;;;2.28;;
21492;SDS011;10908;50.690;4.400;2023-10-19T18:08:32;7.72;;;2.40;;
21492;SDS011;10908;50.690;4.400;2023-10-19T18:10:58;6.28;;;2.50;;
21492;SDS011;10908;50.690;4.400;2023-10-19T18:13:24;5.88;;;2.30;;
21492;SDS011;10908;50.690;4.400;2023-10-19T18:15:51;4.97;;;2.35;;
21492;SDS011;10908;50.690;4.400;2023-10-19T18:18:18;6.28;;;2.33;;
21492;SDS011;10908;50.690;4.400;2023-10-19T18:20:44;5.82;;;2.47;;
21492;SDS011;10908;50.690;4.400;2023-10-19T18:23:10;6.43;;;2.55;;
21492;SDS011;10908;50.690;4.400;2023-10-19T18:25:39;5.80;;;2.28;;
21492;SDS011;10908;50.690;4.400;2023-10-19T18:28:07;6.70;;;2.35;;
21492;SDS011;10908;50.690;4.400;2023-10-19T18:30:33;7.50;;;2.75;;
21492;SDS011;10908;50.690;4.400;2023-10-19T18:33:00;5.22;;;2.30;;
21492;SDS011;10908;50.690;4.400;2023-10-19T18:35:27;6.28;;;2.40;;
21492;SDS011;10908;50.690;4.400;2023-10-19T18:37:52;9.60;;;2.50;;
21492;SDS011;10908;50.690;4.400;2023-10-19T18:40:18;4.80;;;2.47;;
21492;SDS011;10908;50.690;4.400;2023-10-19T18:42:45;4.70;;;2.40;;
21492;SDS011;10908;50.690;4.400;2023-10-19T18:45:11;7.55;;;2.78;;
21492;SDS011;10908;50.690;4.400;2023-10-19T18:47:37;6.85;;;3.30;;
21492;SDS011;10908;50.690;4.400;2023-10-19T18:50:02;7.20;;;2.75;;
21492;SDS011;10908;50.690;4.400;2023-10-19T18:52:31;7.55;;;2.78;;
21492;SDS011;10908;50.690;4.400;2023-10-19T18:54:58;6.45;;;3.03;;
21492;SDS011;10908;50.690;4.400;2023-10-19T18:57:24;6.45;;;2.88;;
21492;SDS011;10908;50.690;4.400;2023-10-19T18:59:50;7.35;;;3.15;;
21492;SDS011;10908;50.690;4.400;2023-10-19T19:02:15;8.07;;;2.60;;
21492;SDS011;10908;50.690;4.400;2023-10-19T19:04:42;6.28;;;2.42;;
21492;SDS011;10908;50.690;4.400;2023-10-19T19:07:08;6.03;;;2.53;;
21492;SDS011;10908;50.690;4.400;2023-10-19T19:09:34;5.78;;;2.50;;
21492;SDS011;10908;50.690;4.400;2023-10-19T19:11:59;6.07;;;3.00;;
21492;SDS011;10908;50.690;4.400;2023-10-19T19:14:25;5.03;;;2.40;;
21492;SDS011;10908;50.690;4.400;2023-10-19T19:16:51;6.97;;;3.45;;
21492;SDS011;10908;50.690;4.400;2023-10-19T19:19:17;6.95;;;3.72;;
21492;SDS011;10908;50.690;4.400;2023-10-19T19:21:46;5.72;;;2.85;;
21492;SDS011;10908;50.690;4.400;2023-10-19T19:24:12;5.65;;;2.88;;
21492;SDS011;10908;50.690;4.400;2023-10-19T19:26:38;5.80;;;2.75;;
21492;SDS011;10908;50.690;4.400;2023-10-19T19:29:04;6.97;;;3.17;;
21492;SDS011;10908;50.690;4.400;2023-10-19T19:31:31;8.55;;;3.80;;
21492;SDS011;10908;50.690;4.400;2023-10-19T19:33:57;7.22;;;3.85;;
21492;SDS011;10908;50.690;4.400;2023-10-19T19:36:22;7.68;;;3.30;;
21492;SDS011;10908;50.690;4.400;2023-10-19T19:38:48;7.90;;;3.72;;
21492;SDS011;10908;50.690;4.400;2023-10-19T19:41:14;7.18;;;3.10;;
21492;SDS011;10908;50.690;4.400;2023-10-19T19:43:40;5.57;;;2.63;;
21492;SDS011;10908;50.690;4.400;2023-10-19T19:46:07;8.60;;;3.33;;
21492;SDS011;10908;50.690;4.400;2023-10-19T19:48:33;8.27;;;3.30;;
21492;SDS011;10908;50.690;4.400;2023-10-19T19:50:59;6.95;;;3.00;;
21492;SDS011;10908;50.690;4.400;2023-10-19T19:53:25;12.27;;;5.25;;
21492;SDS011;10908;50.690;4.400;2023-10-19T19:55:50;7.72;;;3.50;;
21492;SDS011;10908;50.690;4.400;2023-10-19T19:58:16;8.70;;;3.50;;
21492;SDS011;10908;50.690;4.400;2023-10-19T20:00:44;8.68;;;4.00;;
21492;SDS011;10908;50.690;4.400;2023-10-19T20:03:11;9.82;;;5.03;;
21492;SDS011;10908;50.690;4.400;2023-10-19T20:05:37;7.88;;;2.88;;
21492;SDS011;10908;50.690;4.400;2023-10-19T20:08:04;6.93;;;2.70;;
21492;SDS011;10908;50.690;4.400;2023-10-19T20:10:38;9.65;;;2.55;;
21492;SDS011;10908;50.690;4.400;2023-10-19T20:13:08;5.60;;;2.25;;
21492;SDS011;10908;50.690;4.400;2023-10-19T20:15:41;6.35;;;2.55;;
21492;SDS011;10908;50.690;4.400;2023-10-19T20:18:08;6.63;;;2.42;;
21492;SDS011;10908;50.690;4.400;2023-10-19T20:20:34;4.82;;;2.15;;
21492;SDS011;10908;50.690;4.400;2023-10-19T20:23:00;4.45;;;1.80;;
21492;SDS011;10908;50.690;4.400;2023-10-19T20:25:27;4.45;;;2.05;;
21492;SDS011;10908;50.690;4.400;2023-10-19T20:27:54;5.82;;;2.70;;
21492;SDS011;10908;50.690;4.400;2023-10-19T20:30:20;4.88;;;2.10;;
21492;SDS011;10908;50.690;4.400;2023-10-19T20:32:47;5.80;;;2.30;;
21492;SDS011;10908;50.690;4.400;2023-10-19T20:35:14;3.97;;;1.90;;
21492;SDS011;10908;50.690;4.400;2023-10-19T20:37:46;4.47;;;2.40;;
21492;SDS011;10908;50.690;4.400;2023-10-19T20:40:12;6.32;;;2.55;;
21492;SDS011;10908;50.690;4.400;2023-10-19T20:42:46;6.10;;;2.35;;
21492;SDS011;10908;50.690;4.400;2023-10-19T20:45:16;6.03;;;2.05;;
21492;SDS011;10908;50.690;4.400;2023-10-19T20:47:48;8.02;;;1.92;;
21492;SDS011;10908;50.690;4.400;2023-10-19T20:50:18;4.68;;;1.98;;
21492;SDS011;10908;50.690;4.400;2023-10-19T20:52:44;3.92;;;1.70;;
21492;SDS011;10908;50.690;4.400;2023-10-19T20:55:11;7.20;;;1.60;;
21492;SDS011;10908;50.690;4.400;2023-10-19T20:57:38;4.28;;;1.90;;
21492;SDS011;10908;50.690;4.400;2023-10-19T21:00:05;5.68;;;2.28;;
21492;SDS011;10908;50.690;4.400;2023-10-19T21:02:33;4.32;;;1.70;;
21492;SDS011;10908;50.690;4.400;2023-10-19T21:05:00;5.75;;;2.65;;
21492;SDS011;10908;50.690;4.400;2023-10-19T21:07:26;6.28;;;2.50;;
21492;SDS011;10908;50.690;4.400;2023-10-19T21:09:52;4.40;;;1.85;;
21492;SDS011;10908;50.690;4.400;2023-10-19T21:12:18;4.95;;;1.80;;
21492;SDS011;10908;50.690;4.400;2023-10-19T21:14:43;4.13;;;1.60;;
21492;SDS011;10908;50.690;4.400;2023-10-19T21:17:10;9.30;;;3.30;;
21492;SDS011;10908;50.690;4.400;2023-10-19T21:19:36;11.50;;;5.72;;
21492;SDS011;10908;50.690;4.400;2023-10-19T21:22:02;5.50;;;1.80;;
21492;SDS011;10908;50.690;4.400;2023-10-19T21:24:28;3.78;;;1.50;;
21492;SDS011;10908;50.690;4.400;2023-10-19T21:26:55;8.30;;;1.67;;
21492;SDS011;10908;50.690;4.400;2023-10-19T21:29:20;3.72;;;1.10;;
21492;SDS011;10908;50.690;4.400;2023-10-19T21:31:46;3.83;;;1.20;;
21492;SDS011;10908;50.690;4.400;2023-10-19T21:34:12;4.70;;;1.60;;
21492;SDS011;10908;50.690;4.400;2023-10-19T21:36:38;6.45;;;1.30;;
21492;SDS011;10908;50.690;4.400;2023-10-19T21:39:05;7.50;;;1.30;;
21492;SDS011;10908;50.690;4.400;2023-10-19T21:41:33;3.45;;;1.25;;
21492;SDS011;10908;50.690;4.400;2023-10-19T21:43:58;4.88;;;1.27;;
21492;SDS011;10908;50.690;4.400;2023-10-19T21:46:24;3.75;;;1.13;;
21492;SDS011;10908;50.690;4.400;2023-10-19T21:48:50;4.43;;;1.30;;
21492;SDS011;10908;50.690;4.400;2023-10-19T21:51:16;4.35;;;1.23;;
21492;SDS011;10908;50.690;4.400;2023-10-19T21:53:42;4.03;;;1.27;;
21492;SDS011;10908;50.690;4.400;2023-10-19T21:56:08;2.75;;;1.10;;
21492;SDS011;10908;50.690;4.400;2023-10-19T21:58:34;5.03;;;1.10;;
21492;SDS011;10908;50.690;4.400;2023-10-19T22:01:02;4.60;;;1.98;;
21492;SDS011;10908;50.690;4.400;2023-10-19T22:03:31;3.85;;;1.20;;
21492;SDS011;10908;50.690;4.400;2023-10-19T22:05:59;4.30;;;1.20;;
21492;SDS011;10908;50.690;4.400;2023-10-19T22:08:25;3.33;;;1.10;;
21492;SDS011;10908;50.690;4.400;2023-10-19T22:10:52;5.50;;;1.20;;
21492;SDS011;10908;50.690;4.400;2023-10-19T22:13:19;3.45;;;1.20;;
21492;SDS011;10908;50.690;4.400;2023-10-19T22:15:45;4.47;;;1.23;;
21492;SDS011;10908;50.690;4.400;2023-10-19T22:18:12;4.53;;;1.20;;
21492;SDS011;10908;50.690;4.400;2023-10-19T22:20:38;3.35;;;1.20;;
21492;SDS011;10908;50.690;4.400;2023-10-19T22:23:04;3.50;;;1.10;;
21492;SDS011;10908;50.690;4.400;2023-10-19T22:25:32;5.03;;;1.00;;
21492;SDS011;10908;50.690;4.400;2023-10-19T22:27:59;4.35;;;1.33;;
21492;SDS011;10908;50.690;4.400;2023-10-19T22:30:25;4.95;;;1.35;;
21492;SDS011;10908;50.690;4.400;2023-10-19T22:32:51;4.45;;;1.50;;
21492;SDS011;10908;50.690;4.400;2023-10-19T22:35:17;4.18;;;1.33;;
21492;SDS011;10908;50.690;4.400;2023-10-19T22:37:44;4.00;;;1.33;;
21492;SDS011;10908;50.690;4.400;2023-10-19T22:40:10;3.22;;;1.30;;
21492;SDS011;10908;50.690;4.400;2023-10-19T22:42:36;5.30;;;1.50;;
21492;SDS011;10908;50.690;4.400;2023-10-19T22:45:01;4.60;;;1.40;;
21492;SDS011;10908;50.690;4.400;2023-10-19T22:47:29;5.38;;;1.40;;
21492;SDS011;10908;50.690;4.400;2023-10-19T22:49:55;4.47;;;1.50;;
21492;SDS011;10908;50.690;4.400;2023-10-19T22:52:21;4.18;;;1.52;;
21492;SDS011;10908;50.690;4.400;2023-10-19T22:54:49;3.85;;;1.73;;
21492;SDS011;10908;50.690;4.400;2023-10-19T22:57:15;5.45;;;1.95;;
21492;SDS011;10908;50.690;4.400;2023-10-19T22:59:41;4.35;;;1.85;;
21492;SDS011;10908;50.690;4.400;2023-10-19T23:02:06;6.15;;;1.80;;
21492;SDS011;10908;50.690;4.400;2023-10-19T23:04:32;6.35;;;2.05;;
21492;SDS011;10908;50.690;4.400;2023-10-19T23:06:59;5.72;;;2.03;;
21492;SDS011;10908;50.690;4.400;2023-10-19T23:09:26;7.95;;;2.17;;
21492;SDS011;10908;50.690;4.400;2023-10-19T23:11:52;3.70;;;1.90;;
21492;SDS011;10908;50.690;4.400;2023-10-19T23:14:27;9.25;;;2.10;;
21492;SDS011;10908;50.690;4.400;2023-10-19T23:16:56;5.22;;;2.28;;
21492;SDS011;10908;50.690;4.400;2023-10-19T23:19:30;5.30;;;2.20;;
21492;SDS011;10908;50.690;4.400;2023-10-19T23:22:05;5.28;;;2.00;;
21492;SDS011;10908;50.690;4.400;2023-10-19T23:24:32;5.03;;;2.10;;
21492;SDS011;10908;50.690;4.400;2023-10-19T23:26:58;4.38;;;2.10;;
21492;SDS011;10908;50.690;4.400;2023-10-19T23:29:24;6.13;;;2.30;;
21492;SDS011;10908;50.690;4.400;2023-10-19T23:31:54;4.90;;;2.33;;
21492;SDS011;10908;50.690;4.400;2023-10-19T23:34:20;6.05;;;2.40;;
21492;SDS011;10908;50.690;4.400;2023-10-19T23:36:46;4.75;;;2.58;;
21492;SDS011;10908;50.690;4.400;2023-10-19T23:39:12;5.05;;;2.20;;
21492;SDS011;10908;50.690;4.400;2023-10-19T23:41:46;4.47;;;2.25;;
21492;SDS011;10908;50.690;4.400;2023-10-19T23:44:12;6.82;;;2.53;;
21492;SDS011;10908;50.690;4.400;2023-10-19T23:46:38;5.28;;;2.45;;
21492;SDS011;10908;50.690;4.400;2023-10-19T23:49:05;5.30;;;2.33;;
21492;SDS011;10908;50.690;4.400;2023-10-19T23:51:30;6.15;;;2.40;;
21492;SDS011;10908;50.690;4.400;2023-10-19T23:53:57;5.00;;;2.20;;
21492;SDS011;10908;50.690;4.400;2023-10-19T23:56:23;5.45;;;2.30;;
21492;SDS011;10908;50.690;4.400;2023-10-19T23:58:49;5.53;;;2.30;;
